Time;durP1;ratioP1;P1;durP2;ratioP2;P2;SDS_P1;SDS_P2;PMS_P1;PMS_P2;Temp;Humidity;BMP_temperature;BMP_pressure;BME280_temperature;BME280_humidity;BME280_pressure;Samples;Min_cycle;Max_cycle;Signal;HPM_P1;HPM_P2
2022/08/22 00:01:31;;;;;;;6.50;3.95;;;;;;;21.42;nan;-24412.31;4932315;29;20592;-79
2022/08/22 00:04:02;;;;;;;7.20;3.83;;;;;;;21.55;nan;-24415.91;4933377;29;20190;-78
2022/08/22 00:06:52;;;;;;;7.03;4.18;;;;;;;21.49;nan;-24414.41;4932904;29;20187;-78
2022/08/22 00:09:38;;;;;;;7.50;4.60;;;;;;;21.18;nan;-24405.81;4944775;29;20187;-78
2022/08/22 00:12:25;;;;;;;9.57;3.85;;;;;;;21.14;nan;-24404.69;4927516;29;20258;-78
2022/08/22 00:15:11;;;;;;;6.72;4.30;;;;;;;21.43;nan;-24412.72;4933898;29;20194;-78
2022/08/22 00:18:01;;;;;;;9.48;4.07;;;;;;;21.41;nan;-24412.03;4932698;29;20203;-78
2022/08/22 00:20:34;;;;;;;9.15;4.53;;;;;;;21.18;nan;-24405.66;4932893;29;20253;-78
2022/08/22 00:23:00;;;;;;;6.43;4.20;;;;;;;21.31;nan;-24409.28;4933305;29;20258;-78
2022/08/22 00:25:37;;;;;;;8.10;4.00;;;;;;;21.30;nan;-24409.00;4933441;29;20183;-78
2022/08/22 00:28:09;;;;;;;6.82;3.90;;;;;;;21.21;nan;-24406.50;4931291;29;20564;-78
2022/08/22 00:30:55;;;;;;;8.40;4.03;;;;;;;21.14;nan;-24404.84;4932442;29;20179;-77
2022/08/22 00:33:31;;;;;;;7.72;4.20;;;;;;;20.96;nan;-24399.84;4929825;29;20261;-77
2022/08/22 00:36:15;;;;;;;6.47;3.78;;;;;;;21.05;nan;-24402.34;4947129;29;20395;-76
2022/08/22 00:38:47;;;;;;;7.65;4.30;;;;;;;20.99;nan;-24400.53;4932618;29;20187;-77
2022/08/22 00:41:32;;;;;;;7.50;4.13;;;;;;;21.12;nan;-24404.28;4932955;29;20187;-77
2022/08/22 00:44:29;;;;;;;4.95;3.70;;;;;;;20.85;nan;-24396.78;4914957;29;20183;-78
2022/08/22 00:47:19;;;;;;;7.00;4.28;;;;;;;21.08;nan;-24403.16;4932150;29;20326;-78
2022/08/22 00:49:58;;;;;;;8.07;4.13;;;;;;;20.70;nan;-24392.75;4932645;29;20258;-78
2022/08/22 00:52:42;;;;;;;7.28;4.20;;;;;;;20.99;nan;-24400.53;4930248;29;20299;-78
2022/08/22 00:55:35;;;;;;;6.82;4.05;;;;;;;20.87;nan;-24397.34;4932272;29;20189;-78
2022/08/22 00:58:34;;;;;;;8.70;4.47;;;;;;;20.85;nan;-24396.78;4935377;29;20197;-78
2022/08/22 01:01:05;;;;;;;6.40;4.13;;;;;;;20.93;nan;-24398.88;4936111;29;20279;-78
2022/08/22 01:03:49;;;;;;;6.40;4.05;;;;;;;21.02;nan;-24401.50;4936246;29;20207;-78
2022/08/22 01:06:23;;;;;;;7.25;4.55;;;;;;;21.04;nan;-24401.91;4918761;29;20194;-78
2022/08/22 01:09:13;;;;;;;8.18;4.05;;;;;;;20.85;nan;-24396.78;4936780;29;20183;-78
2022/08/22 01:11:42;;;;;;;10.88;4.90;;;;;;;20.81;nan;-24395.53;4936138;29;20286;-77
2022/08/22 01:14:38;;;;;;;6.90;4.22;;;;;;;20.84;nan;-24396.50;4936749;29;20182;-78
2022/08/22 01:17:31;;;;;;;6.07;4.10;;;;;;;20.79;nan;-24394.97;4937269;29;20226;-78
2022/08/22 01:20:34;;;;;;;7.90;4.40;;;;;;;20.82;nan;-24395.94;4935012;29;20178;-77
2022/08/22 01:23:14;;;;;;;7.22;4.53;;;;;;;20.73;nan;-24393.59;4934809;29;20206;-77
2022/08/22 01:26:07;;;;;;;10.45;4.43;;;;;;;20.69;nan;-24392.47;4935258;29;20201;-77
2022/08/22 01:28:43;;;;;;;8.93;4.10;;;;;;;20.73;nan;-24393.59;4934370;29;20209;-77
2022/08/22 01:31:27;;;;;;;7.07;4.65;;;;;;;20.72;nan;-24393.19;4918233;29;20639;-77
2022/08/22 01:34:19;;;;;;;8.07;4.60;;;;;;;20.31;nan;-24381.78;4934388;29;20697;-77
2022/08/22 01:37:18;;;;;;;9.20;4.30;;;;;;;20.35;nan;-24382.91;4935362;29;20729;-77
2022/08/22 01:40:14;;;;;;;8.85;4.50;;;;;;;20.34;nan;-24382.63;4935558;29;20206;-77
2022/08/22 01:43:22;;;;;;;7.82;4.60;;;;;;;20.45;nan;-24385.69;4933764;29;20202;-77
2022/08/22 01:46:24;;;;;;;7.43;4.47;;;;;;;20.59;nan;-24389.56;4934669;29;20198;-77
2022/08/22 01:49:04;;;;;;;6.60;4.10;;;;;;;20.29;nan;-24381.50;4935032;29;20182;-77
2022/08/22 01:52:05;;;;;;;12.52;5.03;;;;;;;20.83;nan;-24396.22;4932847;29;20250;-76
2022/08/22 01:54:53;;;;;;;8.13;4.82;;;;;;;20.74;nan;-24393.72;4934958;29;20190;-78
2022/08/22 01:57:19;;;;;;;8.52;4.60;;;;;;;20.45;nan;-24385.69;4935645;29;20178;-77
2022/08/22 01:59:51;;;;;;;6.15;4.00;;;;;;;20.64;nan;-24391.09;4934317;29;20191;-77
2022/08/22 02:02:41;;;;;;;7.65;4.72;;;;;;;20.52;nan;-24387.63;4934943;29;20210;-78
2022/08/22 02:05:16;;;;;;;10.98;4.93;;;;;;;20.66;nan;-24391.66;4934220;29;20217;-77
2022/08/22 02:07:52;;;;;;;9.38;5.10;;;;;;;20.48;nan;-24386.66;4934927;29;20245;-77
2022/08/22 02:10:38;;;;;;;7.65;4.78;;;;;;;20.51;nan;-24387.50;4935928;29;20209;-77
2022/08/22 02:13:22;;;;;;;7.20;4.43;;;;;;;20.39;nan;-24384.03;4935854;29;20677;-77
2022/08/22 02:16:00;;;;;;;8.15;4.75;;;;;;;20.28;nan;-24381.09;4933932;29;20234;-77
2022/08/22 02:18:40;;;;;;;7.05;4.28;;;;;;;20.21;nan;-24379.16;4932117;29;20198;-77
2022/08/22 02:21:21;;;;;;;9.93;4.70;;;;;;;20.19;nan;-24378.59;4934416;29;20249;-78
2022/08/22 02:23:58;;;;;;;6.90;4.53;;;;;;;20.51;nan;-24387.50;4934555;29;20237;-77
2022/08/22 02:26:51;;;;;;;9.68;4.47;;;;;;;20.53;nan;-24387.91;4931470;29;20200;-78
2022/08/22 02:29:34;;;;;;;6.90;3.83;;;;;;;20.34;nan;-24382.63;4934681;29;20179;-77
2022/08/22 02:32:24;;;;;;;7.97;4.63;;;;;;;20.47;nan;-24386.25;4933828;29;20766;-78
2022/08/22 02:35:04;;;;;;;7.30;4.43;;;;;;;20.21;nan;-24379.28;4924082;29;20659;-77
2022/08/22 02:37:39;;;;;;;10.30;5.13;;;;;;;20.20;nan;-24379.00;4935776;29;20217;-78
2022/08/22 02:40:11;;;;;;;8.98;4.63;;;;;;;20.55;nan;-24388.47;4911761;29;20186;-78
2022/08/22 02:42:58;;;;;;;11.93;5.10;;;;;;;20.13;nan;-24376.94;4933873;29;20328;-77
2022/08/22 02:45:41;;;;;;;9.65;4.68;;;;;;;20.14;nan;-24377.34;4935742;29;20186;-77
2022/08/22 02:48:16;;;;;;;7.20;4.35;;;;;;;20.40;nan;-24384.28;4934600;29;20226;-77
2022/08/22 02:51:09;;;;;;;8.02;4.22;;;;;;;20.42;nan;-24385.00;4935186;29;20612;-77
2022/08/22 02:54:16;;;;;;;9.93;5.18;;;;;;;20.47;nan;-24386.25;4931998;29;20242;-78
2022/08/22 02:56:56;;;;;;;9.27;5.22;;;;;;;20.39;nan;-24384.16;4932437;29;20630;-78
2022/08/22 02:59:36;;;;;;;8.80;4.70;;;;;;;20.34;nan;-24382.63;4935274;29;20193;-77
2022/08/22 03:03:00;;;;;;;8.98;4.82;;;;;;;20.78;nan;-24394.84;4934538;29;20685;-78
2022/08/22 03:05:27;;;;;;;8.65;4.75;;;;;;;20.78;nan;-24394.69;4877241;29;20591;-77
2022/08/22 03:08:16;;;;;;;7.10;4.45;;;;;;;20.47;nan;-24386.38;4876046;29;21293;-78
2022/08/22 03:11:05;;;;;;;11.15;4.75;;;;;;;20.79;nan;-24395.13;4919529;29;20622;-78
2022/08/22 03:14:08;;;;;;;7.85;4.93;;;;;;;20.70;nan;-24392.75;4932288;29;20190;-79
2022/08/22 03:16:44;;;;;;;6.93;4.07;;;;;;;20.41;nan;-24384.56;4926952;29;20235;-79
2022/08/22 03:19:43;;;;;;;8.85;5.47;;;;;;;20.28;nan;-24381.22;4897685;29;20179;-76
2022/08/22 03:22:15;;;;;;;6.78;4.32;;;;;;;20.24;nan;-24380.00;4898358;29;20207;-76
2022/08/22 03:25:18;;;;;;;8.27;4.60;;;;;;;20.62;nan;-24390.41;4891275;29;20200;-78
2022/08/22 03:27:54;;;;;;;8.77;4.90;;;;;;;20.25;nan;-24380.41;4890205;29;20656;-79
2022/08/22 03:30:42;;;;;;;9.27;4.75;;;;;;;20.45;nan;-24385.69;4890738;29;20611;-78
2022/08/22 03:33:20;;;;;;;8.10;4.60;;;;;;;20.31;nan;-24381.78;4890078;29;20239;-78
2022/08/22 03:35:45;;;;;;;8.68;5.10;;;;;;;20.42;nan;-24385.00;4890904;29;20232;-78
2022/08/22 03:38:27;;;;;;;9.98;4.80;;;;;;;20.08;nan;-24375.69;4892122;29;20192;-79
2022/08/22 03:40:52;;;;;;;8.38;4.97;;;;;;;20.41;nan;-24384.56;4905875;29;20195;-77
2022/08/22 03:43:46;;;;;;;11.15;5.15;;;;;;;20.46;nan;-24385.97;4892160;29;20274;-77
2022/08/22 03:46:42;;;;;;;9.68;4.97;;;;;;;20.32;nan;-24382.06;4891517;29;20299;-77
2022/08/22 03:49:14;;;;;;;10.05;4.70;;;;;;;20.46;nan;-24385.97;4891306;29;20187;-77
2022/08/22 03:51:53;;;;;;;8.98;4.95;;;;;;;20.39;nan;-24384.03;4891222;29;20275;-77
2022/08/22 03:54:37;;;;;;;7.97;4.93;;;;;;;20.53;nan;-24387.91;4891529;29;20203;-76
2022/08/22 03:57:08;;;;;;;9.13;5.30;;;;;;;20.30;nan;-24381.66;4892584;29;20195;-77
2022/08/22 03:59:52;;;;;;;7.25;4.43;;;;;;;20.55;nan;-24388.47;4892244;29;20184;-77
2022/08/22 04:02:39;;;;;;;8.18;4.75;;;;;;;20.52;nan;-24387.75;4891572;29;20248;-77
2022/08/22 04:05:38;;;;;;;7.57;4.80;;;;;;;20.53;nan;-24387.91;4891879;29;20184;-77
2022/08/22 04:08:06;;;;;;;8.77;4.90;;;;;;;20.31;nan;-24381.78;4893643;29;20279;-77
2022/08/22 04:10:41;;;;;;;7.60;4.80;;;;;;;20.68;nan;-24392.06;4893609;29;20188;-77
2022/08/22 04:13:44;;;;;;;7.70;4.35;;;;;;;20.76;nan;-24394.28;4886802;29;20191;-77
2022/08/22 04:16:39;;;;;;;10.57;5.07;;;;;;;20.93;nan;-24398.88;4906910;29;20230;-77
2022/08/22 04:19:22;;;;;;;9.60;5.65;;;;;;;21.04;nan;-24401.91;4926457;29;20684;-78
2022/08/22 04:22:06;;;;;;;10.07;5.05;;;;;;;20.92;nan;-24398.72;4927360;29;20178;-78
2022/08/22 04:24:50;;;;;;;8.68;5.13;;;;;;;20.87;nan;-24397.19;4910184;29;20197;-79
2022/08/22 04:27:15;;;;;;;9.32;5.03;;;;;;;22.04;nan;-24429.34;4928163;29;20675;-77
2022/08/22 04:30:11;;;;;;;7.35;4.50;;;;;;;22.73;nan;-24448.31;4931505;29;20205;-77
2022/08/22 04:32:49;;;;;;;8.02;4.70;;;;;;;23.25;nan;-24462.56;4931683;29;20512;-78
2022/08/22 04:35:26;;;;;;;8.27;5.15;;;;;;;23.88;nan;-24479.53;4929616;29;20282;-78
2022/08/22 04:38:11;;;;;;;9.38;5.43;;;;;;;24.65;nan;-24500.63;4945901;29;20182;-79
2022/08/22 04:40:49;;;;;;;7.05;5.00;;;;;;;24.57;nan;-24498.41;4931894;29;20685;-78
2022/08/22 04:43:28;;;;;;;7.47;4.68;;;;;;;24.76;nan;-24503.53;4932055;29;20210;-78
2022/08/22 04:46:08;;;;;;;7.85;4.95;;;;;;;24.89;nan;-24507.09;4932650;29;20665;-78
2022/08/22 04:48:39;;;;;;;9.13;4.40;;;;;;;25.26;nan;-24517.16;4913758;29;20288;-78
2022/08/22 04:51:23;;;;;;;6.93;4.47;;;;;;;25.53;nan;-24524.72;4931496;29;20286;-78
2022/08/22 04:54:23;;;;;;;7.22;4.72;;;;;;;25.98;nan;-24536.81;4913613;29;20279;-78
2022/08/22 04:57:00;;;;;;;9.15;5.20;;;;;;;26.15;nan;-24541.34;4931022;29;20269;-79
2022/08/22 04:59:29;;;;;;;6.90;4.63;;;;;;;26.23;nan;-24543.69;4930406;29;20190;-79
2022/08/22 05:02:05;;;;;;;9.80;4.75;;;;;;;26.10;nan;-24539.97;4931687;29;20171;-78
2022/08/22 05:04:39;;;;;;;7.00;4.43;;;;;;;25.67;nan;-24528.31;4930453;29;20618;-78
2022/08/22 05:07:10;;;;;;;8.57;4.72;;;;;;;26.08;nan;-24539.56;4931510;29;20185;-78
2022/08/22 05:09:40;;;;;;;8.25;4.90;;;;;;;26.16;nan;-24541.78;4913245;29;20214;-78
2022/08/22 05:12:13;;;;;;;7.80;4.30;;;;;;;26.14;nan;-24541.09;4931663;29;20258;-79
2022/08/22 05:14:54;;;;;;;9.00;5.10;;;;;;;25.99;nan;-24537.09;4930962;29;20238;-78
2022/08/22 05:17:24;;;;;;;6.88;4.50;;;;;;;25.70;nan;-24529.13;4930210;29;20223;-79
2022/08/22 05:19:53;;;;;;;6.63;4.00;;;;;;;25.18;nan;-24514.94;4915022;29;20218;-78
2022/08/22 05:22:32;;;;;;;7.65;4.28;;;;;;;25.13;nan;-24513.72;4931964;29;20246;-78
2022/08/22 05:25:01;;;;;;;7.30;4.60;;;;;;;25.05;nan;-24511.66;4931463;29;20682;-78
2022/08/22 05:27:35;;;;;;;8.48;4.75;;;;;;;25.06;nan;-24511.91;4914478;29;20199;-78
2022/08/22 05:30:12;;;;;;;6.97;4.28;;;;;;;24.97;nan;-24509.31;4915562;29;20221;-78
2022/08/22 05:33:10;;;;;;;6.45;4.28;;;;;;;25.49;nan;-24523.63;4930996;29;20198;-78
2022/08/22 05:35:38;;;;;;;12.85;4.63;;;;;;;24.89;nan;-24507.25;4930750;29;20688;-77
2022/08/22 05:38:07;;;;;;;10.43;4.90;;;;;;;25.53;nan;-24524.72;4932058;29;20251;-78
2022/08/22 05:40:36;;;;;;;8.07;4.40;;;;;;;25.11;nan;-24513.03;4931146;29;20218;-78
2022/08/22 05:43:03;;;;;;;7.40;4.45;;;;;;;24.98;nan;-24509.59;4932874;29;20238;-77
2022/08/22 05:45:31;;;;;;;8.27;4.75;;;;;;;25.35;nan;-24519.63;4932660;29;20614;-78
2022/08/22 05:48:18;;;;;;;9.43;4.50;;;;;;;25.41;nan;-24521.41;4933088;29;20187;-77
2022/08/22 05:50:46;;;;;;;7.22;4.82;;;;;;;24.45;nan;-24495.13;4933855;29;20578;-77
2022/08/22 05:53:14;;;;;;;9.15;4.82;;;;;;;24.84;nan;-24505.88;4932227;29;20654;-77
2022/08/22 05:56:02;;;;;;;7.35;4.63;;;;;;;25.05;nan;-24511.66;4915542;29;20195;-77
2022/08/22 05:58:53;;;;;;;7.13;4.32;;;;;;;25.43;nan;-24521.97;4932305;29;20191;-77
2022/08/22 06:01:19;;;;;;;8.18;4.45;;;;;;;25.69;nan;-24529.00;4934748;29;20211;-76
2022/08/22 06:03:59;;;;;;;8.30;4.25;;;;;;;25.98;nan;-24536.69;4915735;29;20214;-78
2022/08/22 06:06:28;;;;;;;7.82;4.75;;;;;;;25.95;nan;-24536.13;4931417;29;20190;-78
2022/08/22 06:09:03;;;;;;;8.52;4.60;;;;;;;25.97;nan;-24536.41;4934669;29;20205;-77
2022/08/22 06:11:47;;;;;;;9.43;4.35;;;;;;;25.91;nan;-24534.91;4933834;29;20310;-77
2022/08/22 06:14:29;;;;;;;8.02;4.75;;;;;;;26.01;nan;-24537.50;4935014;29;20187;-77
2022/08/22 06:17:06;;;;;;;7.53;5.10;;;;;;;26.09;nan;-24539.84;4935634;29;20214;-77
2022/08/22 06:19:35;;;;;;;8.40;4.63;;;;;;;26.39;nan;-24547.97;4933601;29;20197;-78
2022/08/22 06:22:02;;;;;;;7.13;4.43;;;;;;;26.00;nan;-24537.38;4934365;29;20174;-77
2022/08/22 06:24:34;;;;;;;7.88;4.70;;;;;;;26.24;nan;-24543.84;4935214;29;20187;-78
2022/08/22 06:27:11;;;;;;;5.82;4.03;;;;;;;26.28;nan;-24545.06;4933798;29;20238;-76
2022/08/22 06:29:44;;;;;;;7.93;4.28;;;;;;;26.08;nan;-24539.44;4932767;29;20190;-77
2022/08/22 06:32:24;;;;;;;6.78;4.20;;;;;;;26.59;nan;-24553.31;4931907;29;20174;-78
2022/08/22 06:34:55;;;;;;;6.68;4.10;;;;;;;26.57;nan;-24552.91;4930700;29;20277;-77
2022/08/22 06:37:31;;;;;;;7.78;4.18;;;;;;;26.38;nan;-24547.81;4914573;29;20309;-78
2022/08/22 06:39:58;;;;;;;6.45;3.92;;;;;;;25.91;nan;-24534.91;4946242;29;20190;-78
2022/08/22 06:42:29;;;;;;;7.03;4.07;;;;;;;25.97;nan;-24536.41;4930223;29;20202;-78
2022/08/22 06:45:00;;;;;;;7.78;4.22;;;;;;;26.14;nan;-24541.22;4929826;29;20214;-78
2022/08/22 06:47:35;;;;;;;6.03;4.00;;;;;;;26.18;nan;-24542.19;4930470;29;20197;-78
2022/08/22 06:50:10;;;;;;;6.13;3.95;;;;;;;26.52;nan;-24551.38;4915873;29;20189;-77
2022/08/22 06:52:51;;;;;;;6.90;4.22;;;;;;;26.33;nan;-24546.31;4914462;29;20237;-77
2022/08/22 06:55:17;;;;;;;5.82;3.70;;;;;;;26.21;nan;-24543.16;4931827;29;20174;-78
2022/08/22 06:57:49;;;;;;;8.35;4.53;;;;;;;26.70;nan;-24556.47;4931641;29;20183;-77
2022/08/22 07:00:16;;;;;;;6.57;4.07;;;;;;;27.02;nan;-24564.97;4930767;29;20179;-77
2022/08/22 07:02:44;;;;;;;7.10;4.03;;;;;;;26.97;nan;-24563.59;4931613;29;20544;-79
2022/08/22 07:05:17;;;;;;;7.28;4.50;;;;;;;26.72;nan;-24556.88;4912206;29;20242;-77
2022/08/22 07:07:43;;;;;;;9.20;4.90;;;;;;;26.49;nan;-24550.56;4933103;29;20197;-78
2022/08/22 07:10:14;;;;;;;5.72;3.90;;;;;;;26.96;nan;-24563.47;4932124;29;20186;-79
2022/08/22 07:12:44;;;;;;;5.20;3.25;;;;;;;26.83;nan;-24559.91;4933078;29;20186;-77
2022/08/22 07:15:51;;;;;;;5.60;3.58;;;;;;;27.36;nan;-24574.16;4929905;29;20650;-78
2022/08/22 07:18:20;;;;;;;4.85;3.55;;;;;;;27.28;nan;-24572.09;4903628;29;20249;-78
2022/08/22 07:20:55;;;;;;;7.40;4.10;;;;;;;27.24;nan;-24571.00;4930690;29;20190;-79
2022/08/22 07:23:33;;;;;;;8.32;4.47;;;;;;;27.20;nan;-24570.06;4948937;29;20202;-78
2022/08/22 07:26:38;;;;;;;10.52;4.53;;;;;;;27.32;nan;-24573.06;4920748;29;20582;-78
2022/08/22 07:29:32;;;;;;;7.80;4.63;;;;;;;26.66;nan;-24555.22;4918842;29;20181;-78
2022/08/22 07:32:09;;;;;;;8.00;4.60;;;;;;;27.05;nan;-24565.94;4925660;29;20202;-76
2022/08/22 07:34:47;;;;;;;6.22;4.18;;;;;;;27.28;nan;-24572.09;4937704;29;20589;-78
2022/08/22 07:37:29;;;;;;;8.75;4.57;;;;;;;27.53;nan;-24578.81;4937966;29;20182;-78
2022/08/22 07:40:02;;;;;;;9.75;4.43;;;;;;;26.98;nan;-24563.88;4939290;29;20170;-78
2022/08/22 07:42:52;;;;;;;6.13;4.25;;;;;;;27.24;nan;-24571.16;4939094;29;20666;-77
2022/08/22 07:45:32;;;;;;;6.60;4.25;;;;;;;27.25;nan;-24571.28;4922526;29;20177;-79
2022/08/22 07:48:37;;;;;;;8.05;4.05;;;;;;;27.33;nan;-24573.34;4939817;29;20230;-78
2022/08/22 07:51:13;;;;;;;6.68;4.20;;;;;;;27.46;nan;-24576.91;4922758;29;20719;-79
2022/08/22 07:54:00;;;;;;;6.95;4.22;;;;;;;27.93;nan;-24589.78;4938748;29;20249;-78
2022/08/22 07:56:34;;;;;;;9.95;4.63;;;;;;;28.43;nan;-24603.34;4921107;29;20238;-78
2022/08/22 07:59:10;;;;;;;8.15;4.63;;;;;;;28.48;nan;-24604.69;4923498;29;20182;-78
2022/08/22 08:01:37;;;;;;;7.88;4.40;;;;;;;28.57;nan;-24607.03;4942795;29;20202;-78
2022/08/22 08:04:07;;;;;;;9.57;4.65;;;;;;;28.01;nan;-24591.97;4925917;29;20249;-77
2022/08/22 08:06:33;;;;;;;7.65;4.70;;;;;;;28.18;nan;-24596.34;4925293;29;20182;-76
2022/08/22 08:09:00;;;;;;;8.40;4.57;;;;;;;28.25;nan;-24598.41;4940806;29;20217;-77
2022/08/22 08:11:31;;;;;;;6.47;4.35;;;;;;;28.42;nan;-24602.94;4939699;29;20219;-77
2022/08/22 08:14:02;;;;;;;11.05;4.63;;;;;;;28.42;nan;-24602.94;4939977;29;20212;-77
2022/08/22 08:16:33;;;;;;;8.88;4.28;;;;;;;28.22;nan;-24597.59;4939062;29;20232;-78
2022/08/22 08:19:01;;;;;;;6.03;4.10;;;;;;;28.72;nan;-24611.13;4955746;29;20615;-78
2022/08/22 08:21:32;;;;;;;7.18;4.50;;;;;;;28.48;nan;-24604.69;4923555;29;20624;-78
2022/08/22 08:24:00;;;;;;;7.95;4.50;;;;;;;28.90;nan;-24616.06;4939133;29;20206;-78
2022/08/22 08:26:33;;;;;;;7.45;5.05;;;;;;;29.45;nan;-24630.81;4940339;29;20201;-78
2022/08/22 08:29:01;;;;;;;13.20;5.03;;;;;;;29.60;nan;-24634.91;4940091;29;20172;-78
2022/08/22 08:31:37;;;;;;;6.38;3.92;;;;;;;29.60;nan;-24634.75;4940021;29;20175;-78
2022/08/22 08:34:07;;;;;;;6.88;4.15;;;;;;;29.95;nan;-24644.19;4941002;29;20178;-78
2022/08/22 08:36:50;;;;;;;8.45;4.80;;;;;;;29.93;nan;-24643.78;4937590;29;20194;-79
2022/08/22 08:39:36;;;;;;;8.80;5.22;;;;;;;29.74;nan;-24638.59;4939903;29;20213;-78
2022/08/22 08:42:22;;;;;;;7.85;5.22;;;;;;;29.24;nan;-24625.06;4939915;29;20197;-78
2022/08/22 08:45:00;;;;;;;11.07;6.18;;;;;;;29.15;nan;-24622.75;4923789;29;20177;-78
2022/08/22 08:47:28;;;;;;;9.93;5.35;;;;;;;29.74;nan;-24638.59;4921587;29;20183;-78
2022/08/22 08:50:30;;;;;;;9.48;5.78;;;;;;;30.06;nan;-24647.31;4922223;29;20178;-78
2022/08/22 08:53:07;;;;;;;12.23;5.55;;;;;;;30.16;nan;-24650.03;4921416;29;20167;-78
2022/08/22 08:55:50;;;;;;;10.02;4.75;;;;;;;30.17;nan;-24650.19;4921599;29;20182;-78
2022/08/22 08:58:53;;;;;;;8.20;5.15;;;;;;;30.62;nan;-24662.31;4932916;29;20191;-78
2022/08/22 09:01:42;;;;;;;8.80;5.40;;;;;;;30.98;nan;-24672.09;4936241;29;20198;-78
2022/08/22 09:04:26;;;;;;;7.90;5.20;;;;;;;30.95;nan;-24671.16;4941076;29;20693;-79
2022/08/22 09:06:58;;;;;;;9.18;4.95;;;;;;;30.88;nan;-24669.25;4938634;29;20186;-79
2022/08/22 09:09:43;;;;;;;9.07;5.53;;;;;;;30.90;nan;-24669.94;4923878;29;20556;-76
2022/08/22 09:12:32;;;;;;;10.38;5.70;;;;;;;31.11;nan;-24675.53;4921052;29;20167;-77
2022/08/22 09:15:00;;;;;;;10.15;6.38;;;;;;;30.68;nan;-24663.94;4928139;29;20178;-78
2022/08/22 09:17:47;;;;;;;10.02;6.65;;;;;;;30.34;nan;-24654.81;4939881;29;20234;-76
2022/08/22 09:20:46;;;;;;;11.88;6.28;;;;;;;30.53;nan;-24660.00;4939706;29;20241;-76
2022/08/22 09:23:43;;;;;;;10.98;6.35;;;;;;;30.24;nan;-24652.22;4922218;29;20245;-78
2022/08/22 09:26:18;;;;;;;11.07;6.35;;;;;;;29.20;nan;-24623.97;4910378;29;20190;-78
2022/08/22 09:28:54;;;;;;;11.93;6.15;;;;;;;29.62;nan;-24635.44;4941003;29;20161;-77
2022/08/22 09:31:19;;;;;;;13.20;6.60;;;;;;;29.11;nan;-24621.53;4940283;29;20209;-79
2022/08/22 09:33:53;;;;;;;14.38;7.25;;;;;;;28.93;nan;-24616.88;4942451;29;20163;-78
2022/08/22 09:36:31;;;;;;;10.10;6.15;;;;;;;28.72;nan;-24611.00;4942532;29;20542;-78
2022/08/22 09:39:16;;;;;;;15.10;7.50;;;;;;;28.62;nan;-24608.41;4958513;29;20193;-77
2022/08/22 09:42:00;;;;;;;16.13;7.45;;;;;;;28.37;nan;-24601.56;4941718;29;20632;-80
2022/08/22 09:44:44;;;;;;;12.52;7.15;;;;;;;27.95;nan;-24590.19;4957135;29;20220;-77
2022/08/22 09:47:18;;;;;;;13.50;7.75;;;;;;;27.86;nan;-24587.72;4924958;29;20193;-78
2022/08/22 09:50:14;;;;;;;13.70;7.18;;;;;;;27.81;nan;-24586.50;4940914;29;20158;-77
2022/08/22 09:53:04;;;;;;;12.95;6.70;;;;;;;28.20;nan;-24596.91;4939920;29;20175;-78
2022/08/22 09:55:44;;;;;;;16.25;8.02;;;;;;;28.68;nan;-24609.91;4956420;29;20171;-79
2022/08/22 09:58:50;;;;;;;14.95;7.45;;;;;;;29.34;nan;-24627.81;4941693;29;20491;-78
2022/08/22 10:01:27;;;;;;;13.27;7.65;;;;;;;29.71;nan;-24637.75;4953681;29;20174;-78
2022/08/22 10:04:23;;;;;;;15.35;7.50;;;;;;;29.78;nan;-24639.69;4940107;29;20228;-77
2022/08/22 10:07:03;;;;;;;12.32;6.35;;;;;;;29.19;nan;-24623.69;4940513;29;20257;-77
2022/08/22 10:10:07;;;;;;;12.98;6.75;;;;;;;29.46;nan;-24631.06;4939210;29;20260;-77
2022/08/22 10:12:58;;;;;;;11.93;7.38;;;;;;;29.54;nan;-24633.13;4926625;29;20213;-78
2022/08/22 10:15:53;;;;;;;12.10;7.38;;;;;;;29.07;nan;-24620.56;4924829;29;20273;-77
2022/08/22 10:18:51;;;;;;;15.93;7.65;;;;;;;28.65;nan;-24609.22;4934909;29;20182;-77
2022/08/22 10:21:39;;;;;;;16.75;8.32;;;;;;;28.86;nan;-24614.97;4907301;29;20668;-78
2022/08/22 10:24:22;;;;;;;11.95;7.18;;;;;;;28.91;nan;-24616.19;4910904;29;20260;-78
2022/08/22 10:26:52;;;;;;;15.13;8.20;;;;;;;29.14;nan;-24622.47;4921037;29;20264;-77
2022/08/22 10:29:36;;;;;;;15.38;8.38;;;;;;;29.38;nan;-24629.03;4939112;29;20201;-78
2022/08/22 10:32:36;;;;;;;13.35;7.60;;;;;;;29.71;nan;-24637.75;4939489;29;20658;-74
2022/08/22 10:35:40;;;;;;;12.95;7.90;;;;;;;29.87;nan;-24642.00;4938539;29;20178;-77
2022/08/22 10:38:11;;;;;;;17.48;8.50;;;;;;;30.04;nan;-24646.78;4937183;29;20194;-77
2022/08/22 10:40:39;;;;;;;15.73;8.50;;;;;;;29.76;nan;-24639.28;4940693;29;20174;-78
2022/08/22 10:43:39;;;;;;;18.10;8.63;;;;;;;29.74;nan;-24638.59;4941470;29;20270;-77
2022/08/22 10:46:11;;;;;;;15.60;8.55;;;;;;;29.30;nan;-24626.72;4938805;29;20198;-77
2022/08/22 10:48:46;;;;;;;14.60;7.75;;;;;;;29.49;nan;-24631.75;4939050;29;20552;-78
2022/08/22 10:51:21;;;;;;;13.85;7.13;;;;;;;29.13;nan;-24622.06;4939769;29;20205;-78
2022/08/22 10:54:17;;;;;;;15.55;8.48;;;;;;;29.57;nan;-24634.09;4939557;29;20170;-78
2022/08/22 10:57:02;;;;;;;14.38;7.93;;;;;;;29.94;nan;-24644.03;4939471;29;20331;-78
2022/08/22 10:59:42;;;;;;;16.95;7.78;;;;;;;30.15;nan;-24649.78;4939129;29;20654;-78
2022/08/22 11:02:33;;;;;;;16.10;8.20;;;;;;;30.14;nan;-24649.50;4939003;29;20174;-78
2022/08/22 11:05:13;;;;;;;19.42;9.50;;;;;;;30.37;nan;-24655.63;4938159;29;20601;-78
2022/08/22 11:08:03;;;;;;;17.17;8.43;;;;;;;30.28;nan;-24653.19;4921264;29;20186;-78
2022/08/22 11:10:47;;;;;;;14.93;8.25;;;;;;;30.67;nan;-24663.81;4919446;29;20216;-78
2022/08/22 11:13:13;;;;;;;15.80;8.27;;;;;;;30.60;nan;-24661.91;4929201;29;20249;-77
2022/08/22 11:15:59;;;;;;;14.93;7.65;;;;;;;30.36;nan;-24655.22;4937936;29;20229;-78
2022/08/22 11:18:40;;;;;;;14.15;7.75;;;;;;;30.64;nan;-24663.00;4921460;29;20646;-78
2022/08/22 11:21:25;;;;;;;16.40;8.00;;;;;;;30.77;nan;-24666.25;4937881;29;20520;-78
2022/08/22 11:24:24;;;;;;;17.15;8.25;;;;;;;30.73;nan;-24665.16;4920674;29;20214;-78
2022/08/22 11:27:04;;;;;;;17.85;8.73;;;;;;;30.71;nan;-24664.91;4906869;29;20190;-78
2022/08/22 11:29:42;;;;;;;16.33;8.75;;;;;;;30.87;nan;-24669.13;4937586;29;20646;-78
2022/08/22 11:32:24;;;;;;;16.38;8.55;;;;;;;30.69;nan;-24664.22;4938655;29;20182;-78
2022/08/22 11:34:56;;;;;;;16.08;8.75;;;;;;;30.67;nan;-24663.66;4939150;29;20608;-78
2022/08/22 11:37:25;;;;;;;15.30;8.50;;;;;;;30.57;nan;-24661.09;4937871;29;20178;-78
2022/08/22 11:39:59;;;;;;;18.98;9.20;;;;;;;30.62;nan;-24662.44;4922143;29;20182;-76
2022/08/22 11:42:36;;;;;;;15.38;8.82;;;;;;;30.04;nan;-24646.63;4939289;29;20209;-77
2022/08/22 11:45:05;;;;;;;14.15;8.15;;;;;;;29.59;nan;-24634.50;4939519;29;20305;-78
2022/08/22 11:47:39;;;;;;;14.60;8.32;;;;;;;29.84;nan;-24641.44;4920132;29;20178;-78
2022/08/22 11:50:10;;;;;;;13.38;8.68;;;;;;;29.98;nan;-24645.13;4938188;29;20505;-78
2022/08/22 11:53:05;;;;;;;14.38;8.48;;;;;;;29.82;nan;-24640.78;4955818;29;20185;-77
2022/08/22 11:55:34;;;;;;;15.88;7.68;;;;;;;29.65;nan;-24636.13;4938161;29;20158;-77
2022/08/22 11:58:32;;;;;;;15.52;7.45;;;;;;;29.87;nan;-24642.00;4953106;29;20182;-77
2022/08/22 12:01:09;;;;;;;9.98;6.18;;;;;;;29.41;nan;-24629.84;4953503;29;20206;-79
2022/08/22 12:03:40;;;;;;;11.48;6.40;;;;;;;29.45;nan;-24630.81;4937495;29;20206;-79
2022/08/22 12:06:38;;;;;;;12.88;5.78;;;;;;;29.29;nan;-24626.44;4920533;29;20202;-79
2022/08/22 12:09:09;;;;;;;10.32;6.25;;;;;;;29.39;nan;-24629.31;4917756;29;20201;-78
2022/08/22 12:11:40;;;;;;;13.60;6.53;;;;;;;29.40;nan;-24629.44;4937364;29;20194;-78
2022/08/22 12:14:33;;;;;;;8.88;5.63;;;;;;;28.87;nan;-24615.22;4934991;29;20201;-79
2022/08/22 12:17:24;;;;;;;10.43;5.93;;;;;;;28.79;nan;-24612.91;4934753;29;20234;-78
2022/08/22 12:20:09;;;;;;;10.60;6.60;;;;;;;28.82;nan;-24613.72;4932937;29;20277;-79
2022/08/22 12:22:34;;;;;;;10.32;6.00;;;;;;;28.92;nan;-24616.59;4939844;29;20541;-77
2022/08/22 12:25:24;;;;;;;9.68;5.95;;;;;;;28.42;nan;-24603.06;4921909;29;20190;-77
2022/08/22 12:28:08;;;;;;;8.68;5.30;;;;;;;28.55;nan;-24606.63;4943553;29;20182;-77
2022/08/22 12:30:37;;;;;;;9.15;5.50;;;;;;;28.50;nan;-24605.25;4940036;29;20273;-78
2022/08/22 12:33:31;;;;;;;10.25;5.35;;;;;;;28.58;nan;-24607.16;4939389;29;20201;-78
2022/08/22 12:36:55;;;;;;;9.55;5.78;;;;;;;28.92;nan;-24616.47;4936178;29;20564;-78
2022/08/22 12:39:51;;;;;;;12.73;7.40;;;;;;;28.67;nan;-24609.63;4896860;29;20371;-77
2022/08/22 12:42:44;;;;;;;12.68;6.97;;;;;;;28.42;nan;-24603.06;4892668;29;20739;-78
2022/08/22 12:45:36;;;;;;;8.68;5.68;;;;;;;28.24;nan;-24598.13;4928134;29;20297;-78